createdAt,value
2023-07-08T00:07:57.311Z,4
2023-07-08T00:09:59.202Z,2.9
2023-07-08T00:12:01.071Z,3.7
2023-07-08T00:14:03.079Z,3.4
2023-07-08T00:16:04.848Z,6
2023-07-08T00:18:09.834Z,3.6
2023-07-08T00:20:11.678Z,4.3
2023-07-08T00:23:16.071Z,4.6
2023-07-08T00:25:17.918Z,3.3
2023-07-08T00:27:19.802Z,3.5
2023-07-08T00:31:27.090Z,3.9
2023-07-08T00:35:30.451Z,3.5
2023-07-08T00:37:32.327Z,3.3
2023-07-08T00:39:34.182Z,3.6
2023-07-08T00:41:37.602Z,3.2
2023-07-08T00:43:39.442Z,3.1
2023-07-08T00:45:57.311Z,3.1
2023-07-08T00:47:46.376Z,3.2
2023-07-08T00:49:48.185Z,4
2023-07-08T00:53:51.940Z,4
2023-07-08T00:55:53.806Z,3.8
2023-07-08T00:57:55.677Z,3.4
2023-07-08T01:00:00.702Z,4
2023-07-08T01:02:02.723Z,3.8
2023-07-08T01:04:04.545Z,3.6
2023-07-08T01:06:06.365Z,3.2
2023-07-08T01:08:08.269Z,3.7
2023-07-08T01:12:11.997Z,3.7
2023-07-08T01:14:17.026Z,3.8
2023-07-08T01:16:18.918Z,4.3
2023-07-08T01:19:23.289Z,3.3
2023-07-08T01:21:25.177Z,3.8
2023-07-08T01:23:27.064Z,4.3
2023-07-08T01:25:28.960Z,3.3
2023-07-08T01:27:33.977Z,3.8
2023-07-08T01:29:35.820Z,3.7
2023-07-08T01:31:37.746Z,3.6
2023-07-08T01:33:39.611Z,3.7
2023-07-08T01:35:41.472Z,4.1
2023-07-08T01:37:43.364Z,4.5
2023-07-08T01:39:45.257Z,3.2
2023-07-08T01:41:50.285Z,5.3
2023-07-08T01:43:52.166Z,3.3
2023-07-08T01:45:54.116Z,3.9
2023-07-08T01:47:55.954Z,4.1
2023-07-08T01:49:57.785Z,4.2
2023-07-08T01:51:59.698Z,3.4
2023-07-08T01:54:01.592Z,4.2
2023-07-08T01:56:06.635Z,4.8
2023-07-08T01:58:08.508Z,4.2
2023-07-08T02:00:10.373Z,3.9
2023-07-08T02:02:12.247Z,4.2
2023-07-08T02:04:14.169Z,4.2
2023-07-08T02:06:16.044Z,4.5
2023-07-08T02:08:17.892Z,4.3
2023-07-08T02:10:22.946Z,4.9
2023-07-08T02:12:24.828Z,3.9
2023-07-08T02:14:26.746Z,3.7
2023-07-08T02:16:55.252Z,4
2023-07-08T02:18:57.119Z,4.5
2023-07-08T02:20:59.317Z,4.2
2023-07-08T02:23:04.022Z,3.9
2023-07-08T02:25:05.907Z,5.1
2023-07-08T02:27:07.787Z,3.8
2023-07-08T02:29:09.678Z,5
2023-07-08T02:31:11.569Z,4
2023-07-08T02:33:13.428Z,4.5
2023-07-08T02:37:20.467Z,4.8
2023-07-08T02:39:22.236Z,4.3
2023-07-08T02:41:24.161Z,4.5
2023-07-08T02:43:26.035Z,5.1
2023-07-08T02:45:27.928Z,4.7
2023-07-08T02:49:31.717Z,4.5
2023-07-08T02:55:40.516Z,4.3
2023-07-08T02:57:42.428Z,3.8
2023-07-08T03:10:59.561Z,3.8
2023-07-08T03:13:01.290Z,4
2023-07-08T03:15:03.174Z,3.9
2023-07-08T03:17:05.136Z,4.1
2023-07-08T03:19:10.121Z,4.7
2023-07-08T03:21:11.985Z,5.4
2023-07-08T03:23:13.902Z,4.7
2023-07-08T03:25:15.760Z,4.8
2023-07-08T03:27:17.674Z,4.8
2023-07-08T03:29:19.566Z,4.5
2023-07-08T03:31:21.486Z,4.8
2023-07-08T03:39:32.173Z,4.6
2023-07-08T03:49:44.782Z,5.1
2023-07-08T03:51:46.660Z,4.9
2023-07-08T03:53:48.537Z,5
2023-07-08T03:55:50.461Z,4.7
2023-07-08T03:57:52.345Z,5.6
2023-07-08T03:59:54.223Z,4.1
2023-07-08T04:01:59.356Z,5.5
2023-07-08T04:04:01.213Z,4.7
2023-07-08T04:06:03.073Z,3.9
2023-07-08T04:07:05.568Z,5.6
2023-07-08T04:09:07.467Z,5.2
2023-07-08T04:15:16.324Z,5.7
2023-07-08T04:19:20.088Z,4.3
2023-07-08T04:21:22.803Z,5.5
2023-07-08T04:23:23.860Z,5.2
2023-07-08T04:27:27.643Z,5.3
2023-07-08T04:29:32.675Z,4.9
2023-07-08T04:31:34.561Z,5
2023-07-08T04:33:36.432Z,4.8
2023-07-08T04:35:38.356Z,4.8
2023-07-08T04:37:40.295Z,4.7
2023-07-08T04:39:42.130Z,4.2
2023-07-08T04:41:44.018Z,4.6
2023-07-08T04:53:58.521Z,4.8
2023-07-08T04:56:00.397Z,5.9
2023-07-08T04:58:05.448Z,5.2
2023-07-08T05:00:10.541Z,5.8
2023-07-08T05:03:11.719Z,5.7
2023-07-08T05:05:13.606Z,5.4
2023-07-08T05:07:15.465Z,5.8
2023-07-08T05:09:17.887Z,4.9
2023-07-08T05:11:22.383Z,5.6
2023-07-08T05:13:24.264Z,4
2023-07-08T05:15:26.122Z,4.1
2023-07-08T05:17:28.029Z,4.9
2023-07-08T05:19:29.884Z,5.3
2023-07-08T05:21:31.759Z,4.7
2023-07-08T05:23:33.656Z,5.7
2023-07-08T05:25:38.692Z,6.4
2023-07-08T05:27:40.521Z,5.7
2023-07-08T05:29:42.412Z,4.2
2023-07-08T05:31:48.156Z,5
2023-07-08T05:39:54.901Z,5.3
2023-07-08T05:41:56.758Z,4.7
2023-07-08T05:43:58.635Z,5.1
2023-07-08T05:46:11.516Z,6
2023-07-08T05:48:02.454Z,4.1
2023-07-08T05:50:04.224Z,4.8
2023-07-08T05:52:06.105Z,4.3
2023-07-08T05:54:11.100Z,5.4
2023-07-08T06:10:55.722Z,4.2
2023-07-08T06:12:57.565Z,4.6
2023-07-08T06:14:59.384Z,4.5
2023-07-08T06:17:01.304Z,4.4
2023-07-08T06:19:03.110Z,3.8
2023-07-08T06:21:08.114Z,3.6
2023-07-08T06:23:09.928Z,3.6
2023-07-08T06:27:13.602Z,4.1
2023-07-08T06:29:15.458Z,3.9
2023-07-08T06:33:20.695Z,2.6
2023-07-08T06:35:25.664Z,3.7
2023-07-08T06:39:29.324Z,2.3
2023-07-08T06:41:31.175Z,3.5
2023-07-08T06:49:41.659Z,3.4
2023-07-08T06:51:43.494Z,3.2
2023-07-08T06:53:45.333Z,3.7
2023-07-08T06:54:47.813Z,3.2
2023-07-08T06:56:49.624Z,3.5
2023-07-08T06:58:51.450Z,2.7
2023-07-08T07:00:53.326Z,2.9
2023-07-08T07:02:58.313Z,3.7
2023-07-08T07:07:01.877Z,2.5
2023-07-08T07:09:03.716Z,3.1
2023-07-08T07:11:05.511Z,3.3
2023-07-08T07:13:07.311Z,3.4
2023-07-08T07:15:09.126Z,2.7
2023-07-08T07:17:14.222Z,2.7
2023-07-08T07:19:15.936Z,3
2023-07-08T07:21:17.716Z,3.2
2023-07-08T07:23:19.523Z,3.2
2023-07-08T07:25:21.347Z,2.5
2023-07-08T07:27:23.140Z,2.9
2023-07-08T07:29:24.958Z,3.5
2023-07-08T07:31:29.996Z,3.4
2023-07-08T07:33:31.730Z,2.8
2023-07-08T07:35:33.532Z,2.9
2023-07-08T07:37:35.324Z,2.8
2023-07-08T07:39:37.130Z,3
2023-07-08T07:41:38.908Z,3.8
2023-07-08T07:43:40.730Z,3.3
2023-07-08T07:45:45.653Z,3.2
2023-07-08T07:49:49.248Z,2.4
2023-07-08T07:50:51.754Z,3.3
2023-07-08T07:54:55.332Z,2.5
2023-07-08T07:56:57.096Z,3.5
2023-07-08T07:59:02.049Z,3
2023-07-08T08:03:05.672Z,2.9
2023-07-08T08:05:07.403Z,2.8
2023-07-08T08:07:09.183Z,3.1
2023-07-08T08:09:10.952Z,2.4
2023-07-08T08:11:12.749Z,1.9
2023-07-08T08:13:17.684Z,2.7
2023-07-08T08:19:22.964Z,3.1
2023-07-08T08:23:26.521Z,3.1
2023-07-08T08:25:28.258Z,2.2
2023-07-08T08:27:33.208Z,2.9
2023-07-08T08:29:34.959Z,2.6
2023-07-08T08:35:40.292Z,2.4
2023-07-08T08:37:42.071Z,3.6
2023-07-08T08:39:43.776Z,2.4
2023-07-08T08:41:48.705Z,3.2
2023-07-08T08:43:50.457Z,2.8
2023-07-08T08:45:52.182Z,3.1
2023-07-08T08:46:54.810Z,2.9
2023-07-08T08:48:56.380Z,3.2
2023-07-08T08:50:59.444Z,3.3
2023-07-08T08:55:04.772Z,2.6
2023-07-08T08:57:06.519Z,3.2
2023-07-08T08:59:08.246Z,3.2
2023-07-08T09:01:09.943Z,2.4
2023-07-08T09:09:19.997Z,3.5
2023-07-08T09:15:25.139Z,3.3
2023-07-08T09:17:26.841Z,3.9
2023-07-08T09:19:28.529Z,2.3
2023-07-08T09:21:30.243Z,3.6
2023-07-08T09:23:35.144Z,2.8
2023-07-08T09:25:36.870Z,3.8
2023-07-08T09:27:38.583Z,3.6
2023-07-08T09:29:40.236Z,3.4
2023-07-08T09:31:41.924Z,4.1
2023-07-08T09:33:43.615Z,3.7
2023-07-08T09:35:45.290Z,3.2
2023-07-08T09:37:50.178Z,3.6
2023-07-08T09:41:53.525Z,3.8
2023-07-08T09:46:23.428Z,3.9
2023-07-08T09:48:25.173Z,3.3
2023-07-08T09:54:33.238Z,3.8
2023-07-08T09:56:34.886Z,3.6
2023-07-08T10:14:52.962Z,3.8
2023-07-08T10:16:54.618Z,3.2
2023-07-08T10:27:06.013Z,4.3
2023-07-08T10:33:14.111Z,3.1
2023-07-08T10:35:15.735Z,4.2
2023-07-08T10:37:17.347Z,4.3
2023-07-08T11:04:48.415Z,3.1
2023-07-08T11:06:48.769Z,4.3
2023-07-08T11:08:50.385Z,4.2
2023-07-08T11:10:57.242Z,3.8
2023-07-08T11:12:53.591Z,3.7
2023-07-08T11:14:58.370Z,3.5
2023-07-08T11:16:59.973Z,4.1
2023-07-08T11:19:01.578Z,4.4
2023-07-08T11:21:03.297Z,4.5
2023-07-08T11:23:04.757Z,4.9
2023-07-08T11:25:06.353Z,4
2023-07-08T11:27:07.932Z,4
2023-07-08T11:31:14.328Z,3.8
2023-07-08T11:33:15.889Z,4.4
2023-07-08T11:34:18.249Z,4.2
2023-07-08T11:38:21.437Z,4.1
2023-07-08T11:42:27.768Z,4.2
2023-07-08T11:44:29.348Z,4.5
2023-07-08T11:50:34.078Z,3.7
2023-07-08T11:52:35.649Z,4.3
2023-07-08T11:54:37.209Z,3.7
2023-07-08T11:56:42.013Z,3.4
2023-07-08T12:02:46.754Z,4.9
2023-07-08T12:04:48.257Z,4.1
2023-07-08T12:06:49.923Z,3.6
2023-07-08T12:08:53.422Z,4.1
2023-07-08T12:10:56.179Z,4.2
2023-07-08T12:12:57.724Z,4.8
2023-07-08T12:14:59.292Z,4.1
2023-07-08T12:17:00.894Z,4.3
2023-07-08T12:19:02.460Z,3.8
2023-07-08T12:21:04.108Z,4.9
2023-07-08T12:25:11.847Z,4.1
2023-07-08T12:29:15.141Z,4.2
2023-07-08T12:30:17.320Z,4
2023-07-08T12:32:18.885Z,5.2
2023-07-08T12:34:20.431Z,5.3
2023-07-08T12:36:21.984Z,4.2
2023-07-08T12:38:26.762Z,4.5
2023-07-08T12:40:28.303Z,3.4
2023-07-08T12:42:29.848Z,4.3
2023-07-08T12:44:31.396Z,4.4
2023-07-08T12:46:32.959Z,5
2023-07-08T12:48:34.473Z,4.7
2023-07-08T12:50:36.001Z,4.4
2023-07-08T12:52:40.798Z,4.6
2023-07-08T12:54:42.327Z,7.2
2023-07-08T13:08:56.105Z,4.5
2023-07-08T13:10:57.842Z,4.1
2023-07-08T13:12:59.150Z,5
2023-07-08T13:15:00.675Z,4.4
2023-07-08T13:17:02.307Z,4.4
2023-07-08T13:19:03.717Z,4.4
2023-07-08T13:21:08.451Z,4.6
2023-07-08T13:23:09.938Z,4.4
2023-07-08T13:25:11.465Z,5.4
2023-07-08T13:31:42.510Z,5.1
2023-07-08T13:33:47.121Z,11.2
2023-07-08T13:35:48.637Z,3.9
2023-07-08T13:52:03.858Z,6
2023-07-08T13:54:05.361Z,4.5
2023-07-08T13:58:08.335Z,4
2023-07-08T14:00:09.844Z,4.5
2023-07-08T14:04:16.032Z,6.4
2023-07-08T14:08:19.031Z,4.5
2023-07-08T14:10:20.486Z,4.5
2023-07-08T14:12:23.994Z,5.2
2023-07-08T14:14:23.446Z,3.6
2023-07-08T14:18:29.387Z,4.2
2023-07-08T14:20:30.860Z,3.5
2023-07-08T14:21:33.208Z,5
2023-07-08T14:29:42.206Z,4.2
2023-07-08T14:33:45.070Z,4.6
2023-07-08T14:35:46.528Z,4.3
2023-07-08T14:43:54.939Z,5.1
2023-07-08T15:02:09.764Z,4.1
2023-07-08T15:12:19.629Z,4.4
2023-07-08T15:14:20.922Z,4.5
2023-07-08T15:16:22.282Z,5.6
2023-07-08T15:17:24.556Z,5.3
2023-07-08T15:19:25.913Z,5.2
2023-07-08T15:21:27.081Z,4.9
2023-07-08T15:23:30.176Z,4.4
2023-07-08T15:25:32.958Z,4.3
2023-07-08T15:27:34.264Z,3.4
2023-07-08T15:29:35.588Z,5.1
2023-07-08T15:31:36.918Z,4.3
2023-07-08T15:35:39.517Z,3.9
2023-07-08T15:37:40.791Z,3.6
2023-07-08T15:39:45.227Z,5.7
2023-07-08T15:41:46.533Z,5.3
2023-07-08T15:43:47.773Z,4.5
2023-07-08T15:53:57.259Z,4.5
2023-07-08T15:55:58.509Z,5.6
2023-07-08T16:00:01.070Z,4
2023-07-08T16:04:03.516Z,4.1
2023-07-08T16:08:09.173Z,5.3
2023-07-08T16:10:10.398Z,5.6
2023-07-08T16:12:11.636Z,3.7
2023-07-08T16:17:16.340Z,6.6
2023-07-08T16:23:23.122Z,5.4
2023-07-08T16:29:26.816Z,3.5
2023-07-08T16:31:28.100Z,5.1
2023-07-08T16:33:29.278Z,4.3
2023-07-08T16:35:33.622Z,4.2
2023-07-08T16:37:34.837Z,4.3
2023-07-08T16:39:36.072Z,5
2023-07-08T16:41:37.366Z,4.6
2023-07-08T16:43:38.565Z,4.4
2023-07-08T16:45:39.848Z,4.6
2023-07-08T16:47:41.161Z,4
2023-07-08T16:49:45.523Z,4.5
2023-07-08T16:51:46.821Z,4.5
2023-07-08T16:53:48.094Z,4.1
2023-07-08T16:55:49.368Z,4.5
2023-07-08T16:59:51.991Z,5.1
2023-07-08T17:01:53.418Z,5.3
2023-07-08T17:03:57.984Z,3.9
2023-07-08T17:05:59.252Z,4.3
2023-07-08T17:08:00.572Z,4.7
2023-07-08T17:14:31.228Z,4.2
2023-07-08T17:16:35.900Z,4.6
2023-07-08T17:18:37.306Z,3.7
2023-07-08T17:20:38.733Z,5.2
2023-07-08T17:38:54.633Z,4.1
2023-07-08T17:40:56.128Z,4.5
2023-07-08T17:47:03.916Z,4.2
2023-07-08T17:49:05.253Z,4.9
2023-07-08T17:53:08.014Z,4.8
2023-07-08T17:59:15.549Z,4.1
2023-07-08T18:03:18.565Z,4.7
2023-07-08T18:04:20.927Z,4.7
2023-07-08T18:08:23.884Z,4.4
2023-07-08T18:10:25.380Z,4.7
2023-07-08T18:12:31.645Z,5.2
2023-07-08T18:34:51.362Z,5.5
2023-07-08T18:36:52.862Z,5.6
2023-07-08T18:38:54.371Z,5.4
2023-07-08T18:40:58.935Z,5
2023-07-08T18:43:00.464Z,4.9
2023-07-08T18:45:01.959Z,4.9
2023-07-08T18:47:03.583Z,7.1
2023-07-08T18:49:05.027Z,4.6
2023-07-08T18:51:06.556Z,5.3
2023-07-08T18:53:08.096Z,5.2
2023-07-08T18:55:12.856Z,5.8
2023-07-08T18:59:15.897Z,4.3
2023-07-08T19:00:18.293Z,5.1
2023-07-08T19:02:19.817Z,5.7
2023-07-08T19:04:21.361Z,5.8
2023-07-08T19:06:22.907Z,5.1
2023-07-08T19:08:27.682Z,5.1
2023-07-08T19:10:29.225Z,7.4
2023-07-08T19:14:32.332Z,6.7
2023-07-08T19:18:35.490Z,8.2
2023-07-08T19:20:37.015Z,7.3
2023-07-08T19:24:43.306Z,6
2023-07-08T19:26:44.874Z,5.5
2023-07-08T19:30:49.388Z,5.5
2023-07-08T19:32:49.754Z,5.4
2023-07-08T19:34:51.130Z,4.6
2023-07-08T19:36:55.949Z,5.7
2023-07-08T19:38:57.500Z,5.3
2023-07-08T19:40:59.059Z,5.7
2023-07-08T19:43:00.664Z,5.8
2023-07-08T19:45:02.230Z,9.1
2023-07-08T19:47:03.990Z,6.4
2023-07-08T19:49:05.413Z,6.5
2023-07-08T19:51:10.218Z,7
2023-07-08T19:53:11.815Z,5.5
2023-07-08T19:55:13.377Z,5
2023-07-08T19:56:15.809Z,5.7
2023-07-08T19:58:17.381Z,6.4
2023-07-08T20:00:18.982Z,6.7
2023-07-08T20:02:20.681Z,6.2
2023-07-08T20:08:28.608Z,6.6
2023-07-08T20:10:30.235Z,5.5
2023-07-08T20:12:31.813Z,7.3
2023-07-08T20:14:33.443Z,7.3
2023-07-08T20:16:35.071Z,7.7
2023-07-08T20:24:44.759Z,8
2023-07-08T20:26:46.407Z,6.7
2023-07-08T20:28:48.043Z,7
2023-07-08T20:30:49.659Z,6
2023-07-08T20:34:56.118Z,5.9
2023-07-08T20:38:59.359Z,8.3
2023-07-08T20:41:01.024Z,6.1
2023-07-08T20:47:09.088Z,6.7
2023-07-08T20:49:10.718Z,7.5
2023-07-08T20:55:42.141Z,6.5
2023-07-08T20:57:43.799Z,6.7
2023-07-08T21:22:10.012Z,7.4
2023-07-08T21:28:18.188Z,7.3
2023-07-08T21:30:19.855Z,6.8
2023-07-08T21:32:21.548Z,7.3
2023-07-08T21:34:23.188Z,7.3
2023-07-08T21:36:24.924Z,7.3
2023-07-08T21:38:26.562Z,6.2
2023-07-08T21:40:28.232Z,7.7
2023-07-08T21:42:33.114Z,6.8
2023-07-08T21:44:34.775Z,6.8
2023-07-08T21:49:40.583Z,7.8
2023-07-08T21:51:42.274Z,6.9
2023-07-08T21:55:48.858Z,6.5
2023-07-08T21:57:51.393Z,6.8
2023-07-08T21:59:52.272Z,7.1
2023-07-08T22:01:54.032Z,5.8
2023-07-08T22:03:55.732Z,5.9
2023-07-08T22:12:05.709Z,7.6
2023-07-08T22:20:12.571Z,7.5
2023-07-08T22:28:22.647Z,7.1
2023-07-08T22:30:24.411Z,6
2023-07-08T22:32:26.205Z,6.5
2023-07-08T22:34:27.874Z,8.7
2023-07-08T22:36:29.612Z,7.6
2023-07-08T22:38:34.539Z,7.5
2023-07-08T22:40:36.278Z,5.9
2023-07-08T22:42:38.002Z,6.5
2023-07-08T22:43:40.494Z,6.7
2023-07-08T22:45:42.232Z,7.6
2023-07-08T22:51:50.640Z,7.4
2023-07-08T22:53:52.383Z,7.1
2023-07-08T22:55:54.118Z,7.6
2023-07-08T22:57:55.878Z,7.5
2023-07-08T22:59:57.630Z,7.5
2023-07-08T23:01:59.436Z,6.6
2023-07-08T23:12:11.342Z,6
2023-07-08T23:22:23.287Z,6.7
2023-07-08T23:24:25.062Z,6.7
2023-07-08T23:26:26.847Z,6.9
2023-07-08T23:28:28.555Z,7
2023-07-08T23:30:30.318Z,6.6
2023-07-08T23:32:32.155Z,7.4
2023-07-08T23:34:37.021Z,7.8
2023-07-08T23:36:38.779Z,8.1
2023-07-08T23:38:40.554Z,8.5
2023-07-08T23:39:43.043Z,7.4
2023-07-08T23:41:45.185Z,7.2
2023-07-08T23:43:46.535Z,7.5
2023-07-08T23:49:55.013Z,6
2023-07-08T23:51:56.807Z,5.9
2023-07-08T23:58:02.105Z,7.7
